Time;durP1;ratioP1;P1;durP2;ratioP2;P2;SDS_P1;SDS_P2;PMS_P1;PMS_P2;Temp;Humidity;BMP_temperature;BMP_pressure;BME280_temperature;BME280_humidity;BME280_pressure;Samples;Min_cycle;Max_cycle;Signal;HPM_P1;HPM_P2
2021/01/28 00:01:53;;;;;;;11.15;4.32;;;-2.70;77.70;;;;;;5106783;28;20574;-67
2021/01/28 00:04:19;;;;;;;;;;;-2.70;78.00;;;;;;5107102;28;20027;-67
2021/01/28 00:06:44;;;;;;;13.32;6.50;;;-2.80;78.30;;;;;;5106857;28;20419;-67
2021/01/28 00:09:10;;;;;;;;;;;-2.80;78.30;;;;;;5106910;28;20051;-67
2021/01/28 00:11:35;;;;;;;24.33;10.77;;;-2.80;78.50;;;;;;5106240;28;20014;-67
2021/01/28 00:14:01;;;;;;;;;;;-2.80;78.70;;;;;;5106623;28;20097;-68
2021/01/28 00:16:27;;;;;;;28.05;12.20;;;-2.80;79.20;;;;;;5106711;28;19954;-67
2021/01/28 00:18:53;;;;;;;28.30;12.35;;;-2.90;79.50;;;;;;5106179;28;20049;-67
2021/01/28 00:21:19;;;;;;;26.52;11.23;;;-3.00;79.70;;;;;;5106835;28;20043;-67
2021/01/28 00:23:44;;;;;;;;;;;-3.00;79.90;;;;;;5106596;28;20027;-67
2021/01/28 00:26:10;;;;;;;32.72;13.52;;;-3.10;80.30;;;;;;5106913;28;19943;-67
2021/01/28 00:28:36;;;;;;;;;;;-3.20;80.60;;;;;;5105141;28;20395;-68
2021/01/28 00:31:01;;;;;;;30.63;12.57;;;-3.20;81.50;;;;;;5107908;28;19912;-68
2021/01/28 00:33:27;;;;;;;;;;;-3.30;81.50;;;;;;5111194;28;20028;-67
2021/01/28 00:35:56;;;;;;;26.35;10.40;;;-3.30;81.70;;;;;;5110522;28;19907;-67
2021/01/28 00:38:28;;;;;;;19.58;8.07;;;-3.30;82.40;;;;;;5110400;28;20023;-68
2021/01/28 00:40:55;;;;;;;18.23;6.43;;;-3.40;82.10;;;;;;5108962;28;20449;-68
2021/01/28 00:43:21;;;;;;;20.73;9.15;;;-3.30;82.10;;;;;;5110107;28;20028;-67
2021/01/28 00:45:47;;;;;;;21.17;9.20;;;-3.40;82.10;;;;;;5108917;28;20051;-69
2021/01/28 00:48:14;;;;;;;35.45;14.07;;;-3.40;82.10;;;;;;5110217;28;20051;-67
2021/01/28 00:50:41;;;;;;;36.95;12.82;;;-3.40;82.30;;;;;;5110503;28;20031;-67
2021/01/28 00:53:10;;;;;;;27.15;12.52;;;-3.40;82.30;;;;;;5110155;28;20481;-67
2021/01/28 00:55:36;;;;;;;20.08;8.68;;;-3.40;82.60;;;;;;5109091;28;20043;-68
2021/01/28 00:58:02;;;;;;;23.95;11.05;;;-3.40;82.90;;;;;;5108019;28;20046;-67
2021/01/28 01:00:28;;;;;;;26.35;10.80;;;-3.40;82.90;;;;;;5110068;28;20063;-67
2021/01/28 01:02:54;;;;;;;24.30;11.65;;;-3.50;82.70;;;;;;5109857;28;20458;-67
2021/01/28 01:05:22;;;;;;;22.75;10.02;;;-3.50;82.70;;;;;;5109768;28;20032;-66
2021/01/28 01:07:49;;;;;;;33.70;12.20;;;-3.50;83.70;;;;;;5109839;28;20035;-67
2021/01/28 01:10:24;;;;;;;28.20;10.43;;;-3.60;83.00;;;;;;5109561;28;20062;-67
2021/01/28 01:12:50;;;;;;;22.75;10.63;;;-3.60;83.40;;;;;;5109090;28;20024;-67
2021/01/28 01:15:15;;;;;;;26.25;10.35;;;-3.70;83.70;;;;;;5109848;28;20035;-67
2021/01/28 01:17:41;;;;;;;25.08;10.68;;;-3.70;83.50;;;;;;5109620;28;20035;-67
2021/01/28 01:20:08;;;;;;;22.35;8.57;;;-3.70;83.50;;;;;;5109506;28;20035;-67
2021/01/28 01:22:33;;;;;;;15.63;8.02;;;-3.70;83.60;;;;;;5109679;28;20027;-65
2021/01/28 01:24:59;;;;;;;15.50;7.40;;;-3.70;83.90;;;;;;5108005;28;20084;-67
2021/01/28 01:27:24;;;;;;;;;;;-3.80;83.80;;;;;;5109225;28;20101;-67
2021/01/28 01:29:50;;;;;;;16.55;7.07;;;-3.70;83.70;;;;;;5109399;28;19915;-66
2021/01/28 01:32:16;;;;;;;16.35;7.18;;;-3.80;83.70;;;;;;5109474;28;20119;-67
2021/01/28 01:34:41;;;;;;;14.82;7.00;;;-3.80;83.70;;;;;;5109135;28;20526;-67
2021/01/28 01:37:07;;;;;;;13.20;6.20;;;-3.70;83.50;;;;;;5109551;28;20028;-67
2021/01/28 01:39:33;;;;;;;13.18;6.90;;;-3.80;83.40;;;;;;5109427;28;20023;-68
2021/01/28 01:41:58;;;;;;;;;;;-3.80;83.50;;;;;;5108598;28;20621;-67
2021/01/28 01:44:24;;;;;;;12.60;6.10;;;-3.80;83.70;;;;;;5109150;28;19907;-67
2021/01/28 01:46:58;;;;;;;14.63;7.10;;;-3.80;83.60;;;;;;5109198;28;20020;-67
2021/01/28 01:49:25;;;;;;;10.45;4.50;;;-3.80;83.70;;;;;;5108682;28;20031;-67
2021/01/28 01:51:51;;;;;;;10.75;5.72;;;-3.90;84.00;;;;;;5109069;28;20030;-67
2021/01/28 01:54:28;;;;;;;12.27;6.72;;;-3.90;84.30;;;;;;5109179;28;20106;-68
2021/01/28 01:57:03;;;;;;;20.92;10.55;;;-3.90;84.30;;;;;;5108637;28;20024;-67
2021/01/28 01:59:31;;;;;;;17.50;8.85;;;-4.00;84.40;;;;;;5108552;28;20076;-67
2021/01/28 02:02:07;;;;;;;17.17;8.02;;;-4.00;84.40;;;;;;5108774;28;20031;-68
2021/01/28 02:04:33;;;;;;;16.67;7.87;;;-4.10;84.90;;;;;;5107370;28;20508;-67
2021/01/28 02:07:06;;;;;;;15.98;8.02;;;-4.20;85.20;;;;;;5108925;28;20291;-66
2021/01/28 02:09:31;;;;;;;12.60;5.30;;;-4.20;85.20;;;;;;5108444;28;20051;-67
2021/01/28 02:11:57;;;;;;;12.80;6.03;;;-4.20;85.30;;;;;;5108125;28;20426;-66
2021/01/28 02:14:25;;;;;;;13.52;6.05;;;-4.20;85.20;;;;;;5108780;28;20544;-67
2021/01/28 02:17:01;;;;;;;19.02;6.68;;;-4.20;85.10;;;;;;5108827;28;20032;-67
2021/01/28 02:20:03;;;;;;;13.63;4.60;;;-4.30;85.10;;;;;;5108915;28;20496;-67
2021/01/28 02:22:47;;;;;;;9.77;4.97;;;-4.30;86.30;;;;;;5108310;28;20040;-66
2021/01/28 02:25:33;;;;;;;11.20;5.97;;;-4.20;85.90;;;;;;5108661;27;20032;-66
2021/01/28 02:28:05;;;;;;;9.88;4.38;;;-4.20;85.50;;;;;;5107649;28;20128;-68
2021/01/28 02:30:33;;;;;;;8.98;3.78;;;-4.20;85.20;;;;;;5108374;28;20036;-67
2021/01/28 02:32:58;;;;;;;9.55;4.70;;;-4.20;85.30;;;;;;5108144;28;20023;-67
2021/01/28 02:35:28;;;;;;;8.95;4.07;;;-4.20;85.60;;;;;;5108153;28;20484;-67
2021/01/28 02:37:55;;;;;;;13.90;6.38;;;-4.20;85.80;;;;;;5107997;28;20027;-66
2021/01/28 02:40:24;;;;;;;6.85;3.72;;;-4.10;85.90;;;;;;5108223;28;20042;-67
2021/01/28 02:42:50;;;;;;;8.38;3.70;;;-4.10;85.60;;;;;;5107435;28;20027;-66
2021/01/28 02:45:22;;;;;;;9.43;3.97;;;-4.10;85.50;;;;;;5108228;28;20037;-67
2021/01/28 02:47:56;;;;;;;9.00;3.13;;;-4.10;85.20;;;;;;5107737;28;20027;-67
2021/01/28 02:50:40;;;;;;;8.20;3.45;;;-4.20;85.40;;;;;;5107812;28;20373;-67
2021/01/28 02:53:06;;;;;;;8.07;3.45;;;-4.20;85.40;;;;;;5105740;28;20028;-68
2021/01/28 02:55:34;;;;;;;9.13;3.92;;;-4.20;85.50;;;;;;5107559;28;20070;-66
2021/01/28 02:58:00;;;;;;;11.07;4.70;;;-4.20;85.70;;;;;;5107235;28;20032;-67
2021/01/28 03:00:33;;;;;;;11.95;5.25;;;-4.30;86.00;;;;;;5107822;28;20027;-66
2021/01/28 03:03:00;;;;;;;11.07;4.75;;;-4.30;86.10;;;;;;5107777;28;20601;-67
2021/01/28 03:05:26;;;;;;;8.15;3.97;;;-4.30;86.10;;;;;;5107845;28;20034;-67
2021/01/28 03:07:52;;;;;;;13.38;5.28;;;-4.20;85.70;;;;;;5107001;28;20114;-67
2021/01/28 03:10:23;;;;;;;16.55;5.65;;;-4.30;85.40;;;;;;5107311;28;20083;-67
2021/01/28 03:12:49;;;;;;;19.73;8.85;;;-4.30;85.40;;;;;;5107153;28;20035;-66
2021/01/28 03:15:20;;;;;;;19.50;8.50;;;-4.20;85.20;;;;;;5105756;28;20067;-66
2021/01/28 03:17:45;;;;;;;10.85;4.75;;;-4.20;85.20;;;;;;5107424;28;20027;-67
2021/01/28 03:20:13;;;;;;;13.48;6.50;;;-4.20;85.30;;;;;;5107340;28;20027;-67
2021/01/28 03:22:39;;;;;;;11.32;5.57;;;-4.30;85.30;;;;;;5107525;28;20027;-67
2021/01/28 03:25:07;;;;;;;12.55;4.53;;;-4.30;85.50;;;;;;5105652;28;20495;-66
2021/01/28 03:27:33;;;;;;;13.68;5.47;;;-4.40;85.90;;;;;;5106759;27;20427;-67
2021/01/28 03:29:58;;;;;;;10.60;4.72;;;-4.40;85.90;;;;;;5107061;28;20598;-67
2021/01/28 03:32:24;;;;;;;15.60;6.70;;;-4.50;86.00;;;;;;5107240;28;20480;-68
2021/01/28 03:34:50;;;;;;;27.38;8.88;;;-4.50;86.10;;;;;;5107212;28;20035;-68
2021/01/28 03:37:15;;;;;;;18.58;7.90;;;-4.60;86.40;;;;;;5105462;28;20137;-67
2021/01/28 03:39:41;;;;;;;30.60;11.18;;;-4.60;86.40;;;;;;5107035;28;20024;-67
2021/01/28 03:42:07;;;;;;;;;;;-4.70;86.50;;;;;;5106694;28;20107;-66
2021/01/28 03:44:32;;;;;;;48.75;18.60;;;-4.70;87.00;;;;;;5106834;28;19915;-67
2021/01/28 03:46:58;;;;;;;50.05;18.15;;;-4.80;86.80;;;;;;5106367;28;20464;-66
2021/01/28 03:49:24;;;;;;;42.88;16.27;;;-4.70;86.80;;;;;;5106751;28;20055;-67
2021/01/28 03:51:49;;;;;;;13.32;5.65;;;-4.70;86.60;;;;;;5106605;28;20028;-67
2021/01/28 03:54:15;;;;;;;13.02;4.97;;;-4.60;86.70;;;;;;5107188;28;20084;-66
2021/01/28 03:56:41;;;;;;;12.60;4.90;;;-4.50;86.40;;;;;;5106558;28;20024;-67
2021/01/28 03:59:06;;;;;;;13.73;6.03;;;-4.40;86.00;;;;;;5106380;28;20024;-67
2021/01/28 04:01:32;;;;;;;9.98;4.10;;;-4.30;85.60;;;;;;5104939;28;20027;-67
2021/01/28 04:03:58;;;;;;;7.40;3.30;;;-4.20;85.00;;;;;;5106207;28;20503;-67
2021/01/28 04:06:24;;;;;;;9.60;3.45;;;-4.20;84.50;;;;;;5105167;28;20024;-67
2021/01/28 04:08:49;;;;;;;11.23;4.22;;;-4.20;84.20;;;;;;5106358;28;20044;-66
2021/01/28 04:11:15;;;;;;;16.45;6.93;;;-4.20;84.30;;;;;;5106412;28;20031;-66
2021/01/28 04:13:40;;;;;;;45.72;19.58;;;-4.20;84.40;;;;;;5106433;28;20032;-67
2021/01/28 04:16:06;;;;;;;;;;;-4.30;84.40;;;;;;5106945;28;20396;-67
2021/01/28 04:18:32;;;;;;;20.75;7.95;;;-4.40;84.30;;;;;;5106304;28;20333;-66
2021/01/28 04:20:57;;;;;;;16.92;6.45;;;-4.40;83.90;;;;;;5105358;28;20396;-66
2021/01/28 04:23:23;;;;;;;14.23;6.97;;;-4.40;84.00;;;;;;5106116;28;20032;-66
2021/01/28 04:25:48;;;;;;;;;;;-4.40;84.40;;;;;;5106136;28;20024;-66
2021/01/28 04:28:14;;;;;;;26.85;12.73;;;-4.50;85.00;;;;;;5106599;28;19990;-67
2021/01/28 04:30:40;;;;;;;36.50;15.65;;;-4.50;85.10;;;;;;5106228;28;20043;-66
2021/01/28 04:33:06;;;;;;;28.95;12.05;;;-4.60;85.20;;;;;;5106310;28;20027;-67
2021/01/28 04:35:32;;;;;;;39.75;14.60;;;-4.60;85.70;;;;;;5106450;28;20035;-67
2021/01/28 04:37:58;;;;;;;44.55;17.23;;;-4.60;85.90;;;;;;5105979;28;20020;-67
2021/01/28 04:40:46;;;;;;;34.20;14.10;;;-4.60;85.70;;;;;;5105976;28;20019;-66
2021/01/28 04:43:25;;;;;;;39.13;15.98;;;-4.60;85.30;;;;;;5106420;28;20472;-67
2021/01/28 04:45:54;;;;;;;28.25;11.77;;;-4.60;85.10;;;;;;5106127;28;20035;-66
2021/01/28 04:48:20;;;;;;;23.55;10.13;;;-4.70;85.20;;;;;;5106585;28;20020;-66
2021/01/28 04:50:47;;;;;;;26.92;9.75;;;-4.60;85.20;;;;;;5104349;28;20050;-66
2021/01/28 04:53:21;;;;;;;80.43;22.13;;;-4.60;85.20;;;;;;5106407;28;20108;-66
2021/01/28 04:55:49;;;;;;;190.65;42.95;;;-4.50;84.90;;;;;;5105601;28;20031;-67
2021/01/28 04:58:15;;;;;;;153.57;35.97;;;-4.50;84.60;;;;;;5106243;28;20024;-67
2021/01/28 05:00:41;;;;;;;141.52;30.73;;;-4.50;84.60;;;;;;5105956;28;20088;-68
2021/01/28 05:03:27;;;;;;;132.82;30.25;;;-4.40;84.40;;;;;;5105887;28;20372;-67
2021/01/28 05:05:55;;;;;;;83.07;20.10;;;-4.40;84.20;;;;;;5105593;28;20495;-67
2021/01/28 05:08:21;;;;;;;64.10;25.10;;;-4.40;83.70;;;;;;5106132;28;20520;-67
2021/01/28 05:10:50;;;;;;;40.38;17.58;;;-4.40;83.90;;;;;;5105153;28;20039;-65
2021/01/28 05:13:32;;;;;;;37.00;16.20;;;-4.50;83.60;;;;;;5106225;28;20684;-67
2021/01/28 05:16:24;;;;;;;36.78;15.27;;;-4.60;84.10;;;;;;5104636;28;20035;-67
2021/01/28 05:19:02;;;;;;;37.50;14.52;;;-4.70;84.50;;;;;;5109826;28;20019;-65
2021/01/28 05:21:42;;;;;;;46.00;16.83;;;-4.80;84.90;;;;;;5109662;28;20062;-67
2021/01/28 05:24:21;;;;;;;56.88;22.27;;;-4.80;85.30;;;;;;5107607;28;20084;-67
2021/01/28 05:26:47;;;;;;;84.45;29.38;;;-4.80;85.20;;;;;;5109531;28;20411;-66
2021/01/28 05:29:23;;;;;;;81.20;26.90;;;-4.80;85.10;;;;;;5109283;28;20044;-67
2021/01/28 05:31:50;;;;;;;;;;;-4.90;85.90;;;;;;5109610;28;20023;-67
2021/01/28 05:34:34;;;;;;;63.33;24.98;;;-4.90;85.90;;;;;;5109542;28;19947;-67
2021/01/28 05:37:23;;;;;;;64.57;24.75;;;-5.00;85.90;;;;;;5109085;28;20449;-66
2021/01/28 05:39:49;;;;;;;62.97;24.30;;;-5.00;86.10;;;;;;5108876;28;20023;-66
2021/01/28 05:42:27;;;;;;;66.78;25.25;;;-5.00;86.20;;;;;;5109072;28;20030;-67
2021/01/28 05:44:54;;;;;;;66.53;22.52;;;-5.00;86.10;;;;;;5109014;28;20032;-67
2021/01/28 05:47:30;;;;;;;68.03;23.77;;;-5.00;86.50;;;;;;5109229;28;20396;-65
2021/01/28 05:50:16;;;;;;;63.03;22.00;;;-5.10;86.50;;;;;;5108715;28;20104;-66
2021/01/28 05:52:42;;;;;;;63.45;20.38;;;-5.00;86.50;;;;;;5108379;28;20220;-67
2021/01/28 05:55:20;;;;;;;50.78;19.88;;;-5.10;86.30;;;;;;5108716;27;20816;-66
2021/01/28 05:58:11;;;;;;;50.30;18.65;;;-5.10;86.40;;;;;;5109226;28;20465;-65
2021/01/28 06:00:54;;;;;;;46.83;16.85;;;-5.10;86.50;;;;;;5109155;28;20032;-67
2021/01/28 06:03:45;;;;;;;48.28;16.05;;;-5.10;86.50;;;;;;5108643;28;20047;-65
2021/01/28 06:06:37;;;;;;;44.55;19.58;;;-5.00;86.30;;;;;;5109144;28;20073;-69
2021/01/28 06:09:38;;;;;;;35.13;13.15;;;-4.90;86.30;;;;;;5108554;28;20063;-66
2021/01/28 06:12:22;;;;;;;46.25;13.70;;;-4.90;86.10;;;;;;5107285;28;20028;-68
2021/01/28 06:15:12;;;;;;;31.45;11.65;;;-4.80;85.90;;;;;;5108566;28;20027;-68
2021/01/28 06:18:01;;;;;;;45.50;16.02;;;-4.80;85.60;;;;;;5107259;28;20403;-67
2021/01/28 06:20:46;;;;;;;49.08;16.50;;;-4.80;85.60;;;;;;5100314;28;20512;-67
2021/01/28 06:23:34;;;;;;;118.45;51.72;;;-4.80;85.10;;;;;;5108193;28;20028;-67
2021/01/28 06:26:22;;;;;;;68.40;32.17;;;-4.80;85.20;;;;;;5107936;28;20036;-68
2021/01/28 06:29:11;;;;;;;68.85;31.80;;;-4.80;85.10;;;;;;5108433;28;20048;-67
2021/01/28 06:31:43;;;;;;;55.63;24.50;;;-4.80;84.80;;;;;;5108385;28;20059;-67
2021/01/28 06:34:30;;;;;;;63.47;28.65;;;-4.80;85.00;;;;;;5107935;28;20871;-68
2021/01/28 06:37:27;;;;;;;138.05;70.00;;;-4.80;85.40;;;;;;5108088;28;20031;-68
2021/01/28 06:39:56;;;;;;;129.18;61.53;;;-4.80;85.40;;;;;;5107385;28;20023;-67
2021/01/28 06:42:41;;;;;;;108.05;49.22;;;-4.80;85.40;;;;;;5107965;28;20572;-68
2021/01/28 06:45:15;;;;;;;102.90;41.63;;;-4.70;85.40;;;;;;5107738;28;20030;-67
2021/01/28 06:47:59;;;;;;;69.20;31.40;;;-4.70;84.80;;;;;;5106249;28;20038;-67
2021/01/28 06:50:52;;;;;;;67.18;26.70;;;-4.70;84.30;;;;;;5107526;28;20478;-67
2021/01/28 06:53:29;;;;;;;193.30;73.88;;;-4.50;84.30;;;;;;5106360;28;20031;-67
2021/01/28 06:56:04;;;;;;;161.82;62.92;;;-4.10;84.70;;;;;;5107595;28;20027;-67
2021/01/28 06:58:51;;;;;;;115.00;46.53;;;-3.50;81.90;;;;;;5107540;28;20024;-68
2021/01/28 07:01:16;;;;;;;;;;;-2.90;79.50;;;;;;5108080;28;20085;-68
2021/01/28 07:04:17;;;;;;;72.68;29.77;;;-2.10;75.30;;;;;;5107731;28;19911;-68
2021/01/28 07:06:51;;;;;;;49.60;20.20;;;-1.60;74.50;;;;;;5107257;28;20035;-64
2021/01/28 07:09:41;;;;;;;58.55;25.85;;;-1.00;71.80;;;;;;5106871;28;20077;-67
2021/01/28 07:12:11;;;;;;;57.72;27.80;;;-0.60;68.50;;;;;;5106061;28;20023;-66
2021/01/28 07:14:38;;;;;;;89.20;39.45;;;-0.20;68.30;;;;;;5107148;28;20023;-68
2021/01/28 07:17:27;;;;;;;89.38;41.80;;;0.30;65.90;;;;;;5106120;28;20051;-67
2021/01/28 07:20:04;;;;;;;123.55;49.70;;;0.60;64.80;;;;;;5107439;28;20824;-68
2021/01/28 07:22:31;;;;;;;131.88;49.22;;;1.30;61.40;;;;;;5107437;28;20020;-69
2021/01/28 07:25:19;;;;;;;109.97;43.53;;;1.50;61.40;;;;;;5106897;28;20142;-67
2021/01/28 07:28:04;;;;;;;101.93;38.13;;;1.60;59.50;;;;;;5105455;28;20136;-68
2021/01/28 07:30:48;;;;;;;61.00;28.30;;;1.70;59.60;;;;;;5106670;28;20028;-68
2021/01/28 07:33:23;;;;;;;72.97;32.67;;;1.70;58.80;;;;;;5107067;28;20019;-68
2021/01/28 07:35:51;;;;;;;77.20;33.25;;;1.80;60.10;;;;;;5106972;28;20628;-68
2021/01/28 07:38:48;;;;;;;112.78;46.25;;;1.80;59.50;;;;;;5104445;28;20517;-67
2021/01/28 07:41:14;;;;;;;92.05;39.67;;;2.10;58.80;;;;;;5098011;28;20043;-67
2021/01/28 07:43:43;;;;;;;93.85;40.17;;;2.20;58.90;;;;;;5099215;28;20150;-67
2021/01/28 07:46:27;;;;;;;99.85;48.05;;;2.60;58.80;;;;;;5104645;28;20058;-68
2021/01/28 07:49:26;;;;;;;124.43;75.28;;;2.90;57.30;;;;;;5106363;28;20400;-68
2021/01/28 07:51:51;;;;;;;56.15;28.05;;;2.90;56.60;;;;;;5106476;28;20046;-67
2021/01/28 07:54:23;;;;;;;;;;;2.80;56.30;;;;;;5104941;28;20031;-68
2021/01/28 07:57:11;;;;;;;46.92;20.83;;;2.80;56.00;;;;;;5106733;28;19961;-68
2021/01/28 07:59:56;;;;;;;33.97;15.10;;;2.90;56.20;;;;;;5105082;28;20027;-68
2021/01/28 08:02:25;;;;;;;42.00;23.40;;;2.90;56.40;;;;;;5106756;28;20083;-68
2021/01/28 08:04:59;;;;;;;32.47;16.92;;;3.00;56.30;;;;;;5105572;28;20023;-67
2021/01/28 08:07:38;;;;;;;36.47;18.38;;;3.10;57.00;;;;;;5105177;28;20063;-68
2021/01/28 08:10:27;;;;;;;26.63;12.98;;;3.30;56.00;;;;;;5105656;28;20053;-68
2021/01/28 08:12:59;;;;;;;26.00;12.43;;;3.40;56.30;;;;;;5106854;28;20051;-69
2021/01/28 08:16:00;;;;;;;22.48;11.60;;;3.70;55.50;;;;;;5106738;28;20601;-68
2021/01/28 08:18:31;;;;;;;19.48;10.48;;;4.00;55.40;;;;;;5126706;28;20035;-68
2021/01/28 08:21:05;;;;;;;33.00;18.20;;;4.20;54.30;;;;;;5127242;28;20031;-68
2021/01/28 08:23:31;;;;;;;30.85;16.63;;;4.40;54.20;;;;;;5126494;28;20384;-66
2021/01/28 08:25:59;;;;;;;17.60;9.93;;;4.60;53.70;;;;;;5126893;27;20023;-68
2021/01/28 08:28:29;;;;;;;26.63;16.27;;;4.80;53.00;;;;;;5126864;28;20063;-69
2021/01/28 08:31:26;;;;;;;10.07;4.18;;;4.90;51.60;;;;;;5108386;28;20039;-68
2021/01/28 08:33:58;;;;;;;17.40;9.32;;;5.20;48.70;;;;;;5106194;27;20046;-68
2021/01/28 08:36:31;;;;;;;27.40;15.43;;;5.40;48.50;;;;;;5127130;27;20419;-65
2021/01/28 08:39:08;;;;;;;11.20;6.05;;;5.70;47.70;;;;;;5126450;28;20028;-70
2021/01/28 08:41:34;;;;;;;;;;;6.00;45.40;;;;;;5109011;28;20026;-68
2021/01/28 08:44:13;;;;;;;6.95;3.10;;;6.10;45.80;;;;;;5126738;28;19907;-68
2021/01/28 08:46:42;;;;;;;11.60;7.07;;;6.30;45.90;;;;;;5126813;28;20031;-69
2021/01/28 08:49:25;;;;;;;24.52;16.92;;;6.50;44.60;;;;;;5108457;28;20024;-68
2021/01/28 08:52:04;;;;;;;30.13;17.17;;;6.90;45.00;;;;;;5127416;27;20043;-69
2021/01/28 08:54:34;;;;;;;27.58;13.95;;;7.40;44.50;;;;;;5130658;27;20027;-67
2021/01/28 08:57:01;;;;;;;33.15;16.02;;;7.50;41.40;;;;;;5130477;27;20129;-69
2021/01/28 08:59:48;;;;;;;26.23;14.38;;;7.40;41.60;;;;;;5130623;27;20023;-69
2021/01/28 09:02:18;;;;;;;18.45;9.32;;;7.30;42.30;;;;;;5130291;27;20098;-67
2021/01/28 09:04:50;;;;;;;11.25;7.88;;;7.50;42.90;;;;;;5130128;27;20068;-69
2021/01/28 09:07:42;;;;;;;9.52;5.55;;;8.00;41.90;;;;;;5130179;27;20148;-68
2021/01/28 09:10:08;;;;;;;6.93;3.83;;;8.50;41.10;;;;;;5130513;27;20050;-68
2021/01/28 09:12:34;;;;;;;7.68;4.72;;;8.70;39.90;;;;;;5111849;27;20023;-67
2021/01/28 09:15:17;;;;;;;;;;;9.10;40.00;;;;;;5130641;27;20061;-67
2021/01/28 09:17:43;;;;;;;8.45;3.33;;;9.30;39.10;;;;;;5130441;27;19959;-67
2021/01/28 09:20:19;;;;;;;;;;;9.60;38.80;;;;;;5129660;27;20027;-67
2021/01/28 09:22:45;;;;;;;12.82;6.40;;;9.50;38.40;;;;;;5129517;27;19928;-67
2021/01/28 09:25:19;;;;;;;;;;;9.40;38.70;;;;;;5130500;27;20027;-67
2021/01/28 09:27:58;;;;;;;16.55;8.48;;;9.20;38.80;;;;;;5111660;27;19904;-65
2021/01/28 09:30:31;;;;;;;12.48;7.97;;;8.60;40.60;;;;;;5130048;27;20100;-67
2021/01/28 09:32:57;;;;;;;14.60;7.72;;;8.20;40.70;;;;;;5130355;27;20019;-66
2021/01/28 09:35:24;;;;;;;;;;;7.70;42.20;;;;;;5130481;27;20034;-67
2021/01/28 09:38:06;;;;;;;19.40;11.10;;;7.20;43.40;;;;;;5129741;27;19914;-66
2021/01/28 09:40:44;;;;;;;11.52;6.13;;;6.70;46.30;;;;;;5130238;27;20039;-67
2021/01/28 09:43:17;;;;;;;19.23;10.25;;;6.50;47.70;;;;;;5129504;27;20074;-67
2021/01/28 09:45:59;;;;;;;22.95;12.98;;;6.20;48.00;;;;;;5129972;27;20031;-66
2021/01/28 09:48:25;;;;;;;31.10;18.67;;;6.00;48.70;;;;;;5129222;27;20030;-67
2021/01/28 09:50:50;;;;;;;;;;;5.80;48.80;;;;;;5130037;27;20035;-69
2021/01/28 09:53:16;;;;;;;34.88;18.08;;;5.70;49.50;;;;;;5110381;27;20388;-68
2021/01/28 09:55:42;;;;;;;;;;;5.50;50.30;;;;;;5129871;27;20063;-69
2021/01/28 09:58:08;;;;;;;13.23;7.57;;;5.40;51.10;;;;;;5111101;27;20306;-66
2021/01/28 10:00:33;;;;;;;;;;;5.30;51.40;;;;;;5129243;27;20019;-66
2021/01/28 10:03:01;;;;;;;25.70;12.93;;;5.30;51.30;;;;;;5128855;27;19942;-67
2021/01/28 10:05:32;;;;;;;27.02;11.60;;;5.10;51.60;;;;;;5129185;27;20110;-66
2021/01/28 10:07:58;;;;;;;30.45;16.38;;;5.00;52.70;;;;;;5128808;27;20038;-68
2021/01/28 10:10:30;;;;;;;33.42;16.33;;;5.10;53.30;;;;;;5128832;27;20084;-67
2021/01/28 10:12:59;;;;;;;12.88;7.47;;;5.10;53.30;;;;;;5111103;27;20042;-68
2021/01/28 10:15:25;;;;;;;25.20;13.73;;;5.10;52.70;;;;;;5128948;27;20056;-65
2021/01/28 10:17:52;;;;;;;40.97;19.35;;;5.00;52.40;;;;;;5129172;27;20020;-67
2021/01/28 10:20:18;;;;;;;38.47;18.70;;;5.00;52.90;;;;;;5128878;27;20026;-66
2021/01/28 10:22:44;;;;;;;17.05;8.27;;;5.10;52.80;;;;;;5128481;27;20084;-66
2021/01/28 10:25:10;;;;;;;;;;;5.20;52.60;;;;;;5111261;27;20024;-67
2021/01/28 10:27:36;;;;;;;8.15;4.85;;;5.20;52.30;;;;;;5128869;27;20453;-66
2021/01/28 10:30:03;;;;;;;;;;;5.20;52.40;;;;;;5128810;27;20034;-67
2021/01/28 10:32:29;;;;;;;15.23;6.07;;;5.20;52.60;;;;;;5129030;27;19955;-67
2021/01/28 10:34:54;;;;;;;;;;;5.20;53.20;;;;;;5129532;27;20043;-67
2021/01/28 10:37:20;;;;;;;12.93;6.47;;;5.20;53.00;;;;;;5128151;27;19975;-67
2021/01/28 10:39:46;;;;;;;;;;;5.00;53.70;;;;;;5110527;27;20091;-66
2021/01/28 10:42:38;;;;;;;13.63;7.97;;;4.80;54.50;;;;;;5128792;27;19907;-66
2021/01/28 10:45:05;;;;;;;16.02;8.60;;;4.80;55.00;;;;;;5128449;27;20023;-66
2021/01/28 10:47:31;;;;;;;12.45;7.68;;;4.80;54.80;;;;;;5128307;27;20101;-67
2021/01/28 10:49:56;;;;;;;;;;;4.80;55.00;;;;;;5128752;27;20039;-66
2021/01/28 10:52:22;;;;;;;12.15;6.80;;;4.80;55.00;;;;;;5128348;27;19938;-67
2021/01/28 10:54:48;;;;;;;12.40;8.35;;;4.70;55.80;;;;;;5128516;27;20023;-66
2021/01/28 10:57:13;;;;;;;;;;;4.70;56.80;;;;;;5129043;27;20110;-67
2021/01/28 10:59:39;;;;;;;32.40;18.77;;;4.70;57.50;;;;;;5128304;27;19907;-67
2021/01/28 11:02:05;;;;;;;25.80;15.02;;;4.80;57.10;;;;;;5128220;27;20754;-65
2021/01/28 11:04:30;;;;;;;16.63;10.73;;;4.80;56.90;;;;;;5127951;27;20092;-64
2021/01/28 11:06:56;;;;;;;;;;;4.90;57.00;;;;;;5127393;27;20389;-66
2021/01/28 11:09:22;;;;;;;20.48;11.77;;;4.70;57.20;;;;;;5126949;27;19919;-65
2021/01/28 11:11:47;;;;;;;17.40;11.25;;;4.80;57.70;;;;;;5126891;27;20058;-68
2021/01/28 11:14:13;;;;;;;19.85;12.50;;;4.80;57.70;;;;;;5126772;27;20031;-68
2021/01/28 11:16:39;;;;;;;;;;;4.80;58.20;;;;;;5127336;27;20041;-66
2021/01/28 11:19:05;;;;;;;19.05;12.05;;;4.80;59.00;;;;;;5108668;27;19958;-69
2021/01/28 11:21:31;;;;;;;21.15;12.60;;;4.60;59.60;;;;;;5127198;27;20495;-68
2021/01/28 11:23:57;;;;;;;;;;;4.60;60.30;;;;;;5127312;27;20058;-66
2021/01/28 11:26:22;;;;;;;31.33;14.77;;;4.40;61.10;;;;;;5126761;27;19927;-66
2021/01/28 11:28:48;;;;;;;;;;;4.30;62.20;;;;;;5127451;27;20027;-67
2021/01/28 11:31:13;;;;;;;26.90;12.15;;;4.20;63.10;;;;;;5108239;27;19919;-67
2021/01/28 11:33:39;;;;;;;;;;;4.10;63.70;;;;;;5108632;27;20062;-67
2021/01/28 11:36:05;;;;;;;29.83;14.85;;;4.10;64.00;;;;;;5107794;27;19950;-66
2021/01/28 11:38:30;;;;;;;29.17;16.65;;;4.00;63.90;;;;;;5126817;27;20019;-66
2021/01/28 11:40:56;;;;;;;;;;;3.90;64.30;;;;;;5126987;27;20084;-66
2021/01/28 11:43:22;;;;;;;27.35;14.45;;;3.80;65.10;;;;;;5126486;27;19952;-66
2021/01/28 11:45:47;;;;;;;25.88;15.80;;;3.80;65.40;;;;;;5125542;27;20102;-68
2021/01/28 11:48:14;;;;;;;;;;;3.80;65.20;;;;;;5126605;27;20023;-68
2021/01/28 11:50:40;;;;;;;24.90;14.65;;;3.90;65.20;;;;;;5126241;27;19974;-67
2021/01/28 11:53:05;;;;;;;25.63;13.90;;;3.90;65.70;;;;;;5126591;27;20046;-69
2021/01/28 11:55:31;;;;;;;;;;;4.10;65.60;;;;;;5108096;27;20035;-68
2021/01/28 11:57:58;;;;;;;26.02;14.68;;;4.10;64.50;;;;;;5126534;27;20070;-68
2021/01/28 12:00:25;;;;;;;24.38;15.07;;;4.10;64.60;;;;;;5126256;27;20027;-67
2021/01/28 12:02:51;;;;;;;23.45;14.82;;;4.10;64.20;;;;;;5126634;27;20025;-66
2021/01/28 12:05:23;;;;;;;24.48;14.50;;;4.00;64.50;;;;;;5125843;27;20031;-66
2021/01/28 12:07:49;;;;;;;26.52;15.30;;;3.90;64.60;;;;;;5126195;27;20102;-67
2021/01/28 12:10:17;;;;;;;23.95;13.85;;;3.80;65.00;;;;;;5125789;27;20046;-67
2021/01/28 12:12:43;;;;;;;26.45;15.63;;;3.70;65.80;;;;;;5126468;27;20119;-67
2021/01/28 12:15:10;;;;;;;25.42;14.98;;;3.60;66.50;;;;;;5126300;27;20027;-67
2021/01/28 12:17:36;;;;;;;33.33;21.38;;;3.50;67.10;;;;;;5125995;28;20038;-67
2021/01/28 12:20:03;;;;;;;;;;;3.50;67.30;;;;;;5108084;28;20019;-67
2021/01/28 12:22:29;;;;;;;30.92;20.05;;;3.40;68.10;;;;;;5126599;28;19915;-67
2021/01/28 12:24:57;;;;;;;;;;;3.40;67.60;;;;;;5126932;28;20038;-67
2021/01/28 12:27:23;;;;;;;35.90;16.75;;;3.40;67.80;;;;;;5131058;27;19911;-67
2021/01/28 12:29:49;;;;;;;31.92;16.23;;;3.30;68.20;;;;;;5130517;27;20117;-67
2021/01/28 12:32:14;;;;;;;;;;;3.30;68.60;;;;;;5131480;27;20080;-67
2021/01/28 12:34:40;;;;;;;30.15;16.65;;;3.30;69.30;;;;;;5130833;27;19914;-67
2021/01/28 12:37:06;;;;;;;;;;;3.20;69.40;;;;;;5131167;27;20034;-67
2021/01/28 12:39:32;;;;;;;31.75;17.77;;;3.20;69.50;;;;;;5130011;27;19907;-67
2021/01/28 12:41:58;;;;;;;30.52;18.50;;;3.10;69.90;;;;;;5112317;27;20448;-66
2021/01/28 12:44:24;;;;;;;;;;;3.00;70.10;;;;;;5131524;27;20027;-67
2021/01/28 12:46:49;;;;;;;31.20;18.40;;;3.00;70.80;;;;;;5130607;27;19907;-67
2021/01/28 12:49:15;;;;;;;;;;;2.80;71.20;;;;;;5131099;27;20035;-67
2021/01/28 12:51:41;;;;;;;43.95;24.65;;;2.80;71.50;;;;;;5130372;27;20018;-67
2021/01/28 12:54:07;;;;;;;;;;;2.70;72.00;;;;;;5131095;27;20311;-67
2021/01/28 12:56:32;;;;;;;35.70;21.05;;;2.70;72.20;;;;;;5130529;27;19915;-66
2021/01/28 12:58:58;;;;;;;32.38;19.20;;;2.70;72.10;;;;;;5130920;27;20360;-65
2021/01/28 13:01:23;;;;;;;;;;;2.80;71.90;;;;;;5130849;27;20027;-65
2021/01/28 13:03:49;;;;;;;24.05;15.15;;;2.80;72.00;;;;;;5130024;27;19910;-65
2021/01/28 13:06:16;;;;;;;28.02;17.83;;;2.80;72.30;;;;;;5130385;27;20414;-66
2021/01/28 13:08:42;;;;;;;36.15;17.38;;;2.80;72.30;;;;;;5112370;27;20055;-66